sensor_id;sensor_type;location;lat;lon;timestamp;pressure;altitude;pressure_sealevel;temperature;humidity
21096;BME280;10706;49.036;12.112;2022-12-20T00:01:29;98550.38;;;-2.21;93.09
21096;BME280;10706;49.036;12.112;2022-12-20T00:03:58;98554.50;;;-2.19;93.68
21096;BME280;10706;49.036;12.112;2022-12-20T00:06:25;98562.91;;;-2.15;92.72
21096;BME280;10706;49.036;12.112;2022-12-20T00:08:57;98563.19;;;-2.18;93.14
21096;BME280;10706;49.036;12.112;2022-12-20T00:11:24;98564.84;;;-2.17;92.60
21096;BME280;10706;49.036;12.112;2022-12-20T00:13:50;98560.19;;;-2.13;92.78
21096;BME280;10706;49.036;12.112;2022-12-20T00:16:22;98563.59;;;-2.13;93.41
21096;BME280;10706;49.036;12.112;2022-12-20T00:19:00;98565.97;;;-2.10;92.29
21096;BME280;10706;49.036;12.112;2022-12-20T00:21:27;98567.06;;;-2.03;93.00
21096;BME280;10706;49.036;12.112;2022-12-20T00:23:54;98581.81;;;-2.02;93.01
21096;BME280;10706;49.036;12.112;2022-12-20T00:26:29;98578.19;;;-2.10;91.70
21096;BME280;10706;49.036;12.112;2022-12-20T00:28:57;98579.19;;;-2.11;92.39
21096;BME280;10706;49.036;12.112;2022-12-20T00:31:24;98577.50;;;-2.12;92.95
21096;BME280;10706;49.036;12.112;2022-12-20T00:33:53;98581.38;;;-2.07;93.14
21096;BME280;10706;49.036;12.112;2022-12-20T00:36:20;98581.25;;;-2.05;92.59
21096;BME280;10706;49.036;12.112;2022-12-20T00:38:49;98563.50;;;-2.02;92.49
21096;BME280;10706;49.036;12.112;2022-12-20T00:41:20;98571.78;;;-1.97;91.92
21096;BME280;10706;49.036;12.112;2022-12-20T00:43:47;98571.78;;;-1.97;92.85
21096;BME280;10706;49.036;12.112;2022-12-20T00:46:14;98569.84;;;-1.94;91.71
21096;BME280;10706;49.036;12.112;2022-12-20T00:48:41;98565.16;;;-2.01;91.88
21096;BME280;10706;49.036;12.112;2022-12-20T00:51:10;98567.25;;;-1.94;92.54
21096;BME280;10706;49.036;12.112;2022-12-20T00:53:37;98565.31;;;-1.92;92.34
21096;BME280;10706;49.036;12.112;2022-12-20T00:56:04;98563.50;;;-1.92;92.41
21096;BME280;10706;49.036;12.112;2022-12-20T00:58:37;98559.38;;;-1.94;91.88
21096;BME280;10706;49.036;12.112;2022-12-20T01:01:06;98563.94;;;-1.97;92.58
21096;BME280;10706;49.036;12.112;2022-12-20T01:03:32;98569.97;;;-1.96;92.05
21096;BME280;10706;49.036;12.112;2022-12-20T01:06:01;98558.81;;;-1.98;92.56
21096;BME280;10706;49.036;12.112;2022-12-20T01:08:29;98571.50;;;-1.93;92.43
21096;BME280;10706;49.036;12.112;2022-12-20T01:11:07;98571.91;;;-1.98;93.02
21096;BME280;10706;49.036;12.112;2022-12-20T01:13:36;98565.59;;;-1.86;92.69
21096;BME280;10706;49.036;12.112;2022-12-20T01:16:10;98560.63;;;-1.89;91.78
21096;BME280;10706;49.036;12.112;2022-12-20T01:18:36;98574.84;;;-1.82;92.48
21096;BME280;10706;49.036;12.112;2022-12-20T01:21:09;98565.19;;;-1.81;91.83
21096;BME280;10706;49.036;12.112;2022-12-20T01:23:36;98566.31;;;-1.74;91.42
21096;BME280;10706;49.036;12.112;2022-12-20T01:26:04;98555.97;;;-1.85;91.58
21096;BME280;10706;49.036;12.112;2022-12-20T01:28:31;98559.38;;;-1.94;91.78
21096;BME280;10706;49.036;12.112;2022-12-20T01:30:57;98558.13;;;-2.00;92.13
21096;BME280;10706;49.036;12.112;2022-12-20T01:33:23;98548.22;;;-2.06;92.66
21096;BME280;10706;49.036;12.112;2022-12-20T01:36:00;98549.16;;;-2.07;93.59
21096;BME280;10706;49.036;12.112;2022-12-20T01:38:27;98540.22;;;-2.05;93.05
21096;BME280;10706;49.036;12.112;2022-12-20T01:40:54;98549.72;;;-2.04;92.48
21096;BME280;10706;49.036;12.112;2022-12-20T01:43:21;98554.84;;;-2.02;93.53
21096;BME280;10706;49.036;12.112;2022-12-20T01:45:47;98548.06;;;-2.05;93.31
21096;BME280;10706;49.036;12.112;2022-12-20T01:48:20;98541.75;;;-1.92;93.35
21096;BME280;10706;49.036;12.112;2022-12-20T01:50:48;98554.84;;;-2.02;92.52
21096;BME280;10706;49.036;12.112;2022-12-20T01:53:16;98551.66;;;-1.96;93.05
21096;BME280;10706;49.036;12.112;2022-12-20T01:55:43;98546.28;;;-2.04;92.20
21096;BME280;10706;49.036;12.112;2022-12-20T01:58:12;98540.63;;;-2.09;92.86
21096;BME280;10706;49.036;12.112;2022-12-20T02:00:39;98533.34;;;-2.06;92.90
21096;BME280;10706;49.036;12.112;2022-12-20T02:03:08;98534.56;;;-2.10;92.95
21096;BME280;10706;49.036;12.112;2022-12-20T02:05:40;98524.94;;;-2.09;92.68
21096;BME280;10706;49.036;12.112;2022-12-20T02:08:07;98530.44;;;-2.03;93.62
21096;BME280;10706;49.036;12.112;2022-12-20T02:11:09;98527.56;;;-2.00;93.08
21096;BME280;10706;49.036;12.112;2022-12-20T02:17:17;98529.19;;;-2.08;93.06
21096;BME280;10706;49.036;12.112;2022-12-20T02:32:24;98502.06;;;-2.17;93.32
21096;BME280;10706;49.036;12.112;2022-12-20T02:34:51;98507.28;;;-2.27;94.06
21096;BME280;10706;49.036;12.112;2022-12-20T02:37:17;98516.06;;;-2.28;93.93
21096;BME280;10706;49.036;12.112;2022-12-20T02:39:44;98508.78;;;-2.24;93.21
21096;BME280;10706;49.036;12.112;2022-12-20T02:42:17;98499.56;;;-2.28;92.87
21096;BME280;10706;49.036;12.112;2022-12-20T02:44:55;98507.13;;;-2.25;93.79
21096;BME280;10706;49.036;12.112;2022-12-20T02:47:58;98499.94;;;-2.33;93.45
21096;BME280;10706;49.036;12.112;2022-12-20T02:50:51;98495.56;;;-2.32;93.58
21096;BME280;10706;49.036;12.112;2022-12-20T02:53:19;98500.94;;;-2.34;93.67
21096;BME280;10706;49.036;12.112;2022-12-20T02:58:52;98491.53;;;-2.37;93.78
21096;BME280;10706;49.036;12.112;2022-12-20T03:01:33;98501.47;;;-2.40;94.68
21096;BME280;10706;49.036;12.112;2022-12-20T03:04:01;98504.09;;;-2.40;93.87
21096;BME280;10706;49.036;12.112;2022-12-20T03:06:28;98498.13;;;-2.42;94.87
21096;BME280;10706;49.036;12.112;2022-12-20T03:08:55;98499.25;;;-2.45;93.81
21096;BME280;10706;49.036;12.112;2022-12-20T03:11:21;98502.97;;;-2.47;95.18
21096;BME280;10706;49.036;12.112;2022-12-20T03:13:46;98488.50;;;-2.51;94.58
21096;BME280;10706;49.036;12.112;2022-12-20T03:16:12;98483.56;;;-2.45;93.48
21096;BME280;10706;49.036;12.112;2022-12-20T03:18:38;98487.41;;;-2.49;94.57
21096;BME280;10706;49.036;12.112;2022-12-20T03:21:04;98483.13;;;-2.50;94.48
21096;BME280;10706;49.036;12.112;2022-12-20T03:23:30;98475.44;;;-2.51;94.45
21096;BME280;10706;49.036;12.112;2022-12-20T03:25:56;98476.13;;;-2.49;94.31
21096;BME280;10706;49.036;12.112;2022-12-20T03:28:22;98482.19;;;-2.49;95.22
21096;BME280;10706;49.036;12.112;2022-12-20T03:30:48;98472.41;;;-2.47;94.37
21096;BME280;10706;49.036;12.112;2022-12-20T03:33:14;98469.25;;;-2.41;94.76
21096;BME280;10706;49.036;12.112;2022-12-20T03:35:40;98470.34;;;-2.43;95.11
21096;BME280;10706;49.036;12.112;2022-12-20T03:38:06;98472.28;;;-2.45;94.04
21096;BME280;10706;49.036;12.112;2022-12-20T03:40:32;98468.13;;;-2.48;94.75
21096;BME280;10706;49.036;12.112;2022-12-20T03:42:57;98470.91;;;-2.40;94.89
21096;BME280;10706;49.036;12.112;2022-12-20T03:45:23;98482.59;;;-2.44;94.47
21096;BME280;10706;49.036;12.112;2022-12-20T03:47:49;98485.78;;;-2.40;94.20
21096;BME280;10706;49.036;12.112;2022-12-20T03:50:15;98478.09;;;-2.32;94.82
21096;BME280;10706;49.036;12.112;2022-12-20T03:52:40;98476.47;;;-2.23;94.81
21096;BME280;10706;49.036;12.112;2022-12-20T03:55:07;98485.00;;;-2.21;94.80
21096;BME280;10706;49.036;12.112;2022-12-20T03:57:34;98485.00;;;-2.21;94.20
21096;BME280;10706;49.036;12.112;2022-12-20T04:00:00;98490.09;;;-2.00;93.44
21096;BME280;10706;49.036;12.112;2022-12-20T04:02:26;98477.69;;;-2.18;93.59
21096;BME280;10706;49.036;12.112;2022-12-20T04:04:52;98471.63;;;-2.18;93.88
21096;BME280;10706;49.036;12.112;2022-12-20T04:07:17;98479.09;;;-2.13;94.24
21096;BME280;10706;49.036;12.112;2022-12-20T04:09:43;98484.31;;;-2.13;94.19
21096;BME280;10706;49.036;12.112;2022-12-20T04:12:09;98492.97;;;-2.13;93.19
21096;BME280;10706;49.036;12.112;2022-12-20T04:14:35;98492.03;;;-2.12;93.28
21096;BME280;10706;49.036;12.112;2022-12-20T04:17:02;98487.75;;;-2.13;93.51
21096;BME280;10706;49.036;12.112;2022-12-20T04:19:28;98479.47;;;-2.18;93.83
21096;BME280;10706;49.036;12.112;2022-12-20T04:21:53;98486.50;;;-2.09;94.33
21096;BME280;10706;49.036;12.112;2022-12-20T04:24:21;98477.84;;;-2.09;92.72
21096;BME280;10706;49.036;12.112;2022-12-20T04:26:46;98479.91;;;-2.13;93.64
21096;BME280;10706;49.036;12.112;2022-12-20T04:29:14;98473.16;;;-2.06;93.80
21096;BME280;10706;49.036;12.112;2022-12-20T04:31:40;98463.94;;;-2.00;92.83
21096;BME280;10706;49.036;12.112;2022-12-20T04:34:06;98460.22;;;-2.07;92.44
21096;BME280;10706;49.036;12.112;2022-12-20T04:36:32;98464.06;;;-2.02;92.63
21096;BME280;10706;49.036;12.112;2022-12-20T04:38:58;98459.09;;;-2.05;92.48
21096;BME280;10706;49.036;12.112;2022-12-20T04:41:24;98443.69;;;-2.08;92.54
21096;BME280;10706;49.036;12.112;2022-12-20T04:43:56;98426.88;;;-2.05;93.07
21096;BME280;10706;49.036;12.112;2022-12-20T04:46:24;98433.22;;;-2.18;93.39
21096;BME280;10706;49.036;12.112;2022-12-20T04:48:51;98427.97;;;-2.27;94.11
21096;BME280;10706;49.036;12.112;2022-12-20T04:51:17;98448.38;;;-2.21;93.31
21096;BME280;10706;49.036;12.112;2022-12-20T04:53:43;98462.53;;;-2.24;93.56
21096;BME280;10706;49.036;12.112;2022-12-20T04:56:27;98472.88;;;-2.22;93.92
21096;BME280;10706;49.036;12.112;2022-12-20T04:58:55;98476.03;;;-2.19;94.18
21096;BME280;10706;49.036;12.112;2022-12-20T05:01:22;98465.84;;;-2.22;93.66
21096;BME280;10706;49.036;12.112;2022-12-20T05:03:48;98469.00;;;-2.18;93.81
21096;BME280;10706;49.036;12.112;2022-12-20T05:06:14;98468.63;;;-2.23;93.04
21096;BME280;10706;49.036;12.112;2022-12-20T05:08:40;98451.00;;;-2.21;93.06
21096;BME280;10706;49.036;12.112;2022-12-20T05:11:07;98445.75;;;-2.21;94.00
21096;BME280;10706;49.036;12.112;2022-12-20T05:13:33;98437.63;;;-2.18;94.04
21096;BME280;10706;49.036;12.112;2022-12-20T05:15:59;98430.63;;;-2.08;93.51
21096;BME280;10706;49.036;12.112;2022-12-20T05:18:26;98415.06;;;-2.09;92.29
21096;BME280;10706;49.036;12.112;2022-12-20T05:20:57;98409.41;;;-1.95;92.33
21096;BME280;10706;49.036;12.112;2022-12-20T05:23:42;98406.25;;;-1.99;92.77
21096;BME280;10706;49.036;12.112;2022-12-20T05:26:31;98426.06;;;-2.06;92.06
21096;BME280;10706;49.036;12.112;2022-12-20T05:28:57;98425.50;;;-2.00;91.79
21096;BME280;10706;49.036;12.112;2022-12-20T05:31:23;98420.84;;;-2.06;93.14
21096;BME280;10706;49.036;12.112;2022-12-20T05:33:49;98428.00;;;-2.08;92.94
21096;BME280;10706;49.036;12.112;2022-12-20T05:36:14;98426.63;;;-1.92;92.08
21096;BME280;10706;49.036;12.112;2022-12-20T05:38:40;98421.38;;;-2.02;92.46
21096;BME280;10706;49.036;12.112;2022-12-20T05:41:06;98417.25;;;-2.15;93.12
21096;BME280;10706;49.036;12.112;2022-12-20T05:43:33;98431.84;;;-2.02;92.32
21096;BME280;10706;49.036;12.112;2022-12-20T05:45:59;98420.53;;;-2.03;93.05
21096;BME280;10706;49.036;12.112;2022-12-20T05:48:25;98424.25;;;-1.96;92.44
21096;BME280;10706;49.036;12.112;2022-12-20T05:50:51;98425.09;;;-2.05;93.54
21096;BME280;10706;49.036;12.112;2022-12-20T05:53:17;98441.63;;;-2.04;92.55
21096;BME280;10706;49.036;12.112;2022-12-20T05:55:49;98449.75;;;-1.98;93.32
21096;BME280;10706;49.036;12.112;2022-12-20T05:58:15;98432.53;;;-2.00;92.45
21096;BME280;10706;49.036;12.112;2022-12-20T06:00:42;98425.25;;;-2.06;93.22
21096;BME280;10706;49.036;12.112;2022-12-20T06:03:09;98431.00;;;-2.03;93.70
21096;BME280;10706;49.036;12.112;2022-12-20T06:05:37;98419.47;;;-2.00;93.14
21096;BME280;10706;49.036;12.112;2022-12-20T06:08:04;98409.94;;;-2.11;93.21
21096;BME280;10706;49.036;12.112;2022-12-20T06:10:32;98403.91;;;-2.11;93.57
21096;BME280;10706;49.036;12.112;2022-12-20T06:13:00;98408.59;;;-2.15;94.16
21096;BME280;10706;49.036;12.112;2022-12-20T06:15:26;98405.69;;;-2.12;94.11
21096;BME280;10706;49.036;12.112;2022-12-20T06:17:51;98418.09;;;-2.04;93.43
21096;BME280;10706;49.036;12.112;2022-12-20T06:20:17;98420.56;;;-1.93;92.45
21096;BME280;10706;49.036;12.112;2022-12-20T06:22:43;98426.06;;;-2.06;93.20
21096;BME280;10706;49.036;12.112;2022-12-20T06:25:10;98436.13;;;-2.11;93.28
21096;BME280;10706;49.036;12.112;2022-12-20T06:27:37;98436.81;;;-1.89;93.40
21096;BME280;10706;49.036;12.112;2022-12-20T06:30:04;98421.09;;;-1.99;92.64
21096;BME280;10706;49.036;12.112;2022-12-20T06:32:30;98419.59;;;-2.02;93.25
21096;BME280;10706;49.036;12.112;2022-12-20T06:34:56;98415.31;;;-2.03;93.26
21096;BME280;10706;49.036;12.112;2022-12-20T06:37:22;98411.75;;;-2.11;94.02
21096;BME280;10706;49.036;12.112;2022-12-20T06:39:47;98416.69;;;-2.08;94.00
21096;BME280;10706;49.036;12.112;2022-12-20T06:42:13;98426.75;;;-2.04;93.13
21096;BME280;10706;49.036;12.112;2022-12-20T06:44:39;98431.44;;;-1.98;93.97
21096;BME280;10706;49.036;12.112;2022-12-20T06:47:05;98430.75;;;-2.00;92.36
21096;BME280;10706;49.036;12.112;2022-12-20T06:49:31;98421.13;;;-1.89;92.92
21096;BME280;10706;49.036;12.112;2022-12-20T06:51:56;98421.94;;;-1.99;93.07
21096;BME280;10706;49.036;12.112;2022-12-20T06:54:22;98427.19;;;-1.99;93.34
21096;BME280;10706;49.036;12.112;2022-12-20T06:56:48;98425.38;;;-2.08;93.56
21096;BME280;10706;49.036;12.112;2022-12-20T06:59:14;98421.94;;;-1.99;93.65
21096;BME280;10706;49.036;12.112;2022-12-20T07:01:40;98425.38;;;-1.98;92.60
21096;BME280;10706;49.036;12.112;2022-12-20T07:04:05;98410.63;;;-2.09;93.19
21096;BME280;10706;49.036;12.112;2022-12-20T07:06:31;98398.38;;;-2.08;94.31
21096;BME280;10706;49.036;12.112;2022-12-20T07:08:57;98409.81;;;-2.00;92.61
21096;BME280;10706;49.036;12.112;2022-12-20T07:11:23;98391.75;;;-2.03;92.86
21096;BME280;10706;49.036;12.112;2022-12-20T07:13:48;98396.03;;;-1.92;93.30
21096;BME280;10706;49.036;12.112;2022-12-20T07:16:19;98387.34;;;-1.83;93.00
21096;BME280;10706;49.036;12.112;2022-12-20T07:18:49;98389.72;;;-1.89;93.49
21096;BME280;10706;49.036;12.112;2022-12-20T07:21:15;98386.94;;;-1.98;92.96
21096;BME280;10706;49.036;12.112;2022-12-20T07:23:42;98384.88;;;-1.94;93.45
21096;BME280;10706;49.036;12.112;2022-12-20T07:26:08;98389.56;;;-1.98;93.69
21096;BME280;10706;49.036;12.112;2022-12-20T07:28:34;98360.53;;;-2.04;94.11
21096;BME280;10706;49.036;12.112;2022-12-20T07:31:01;98358.00;;;-1.86;93.82
21096;BME280;10706;49.036;12.112;2022-12-20T07:33:28;98368.75;;;-1.80;92.33
21096;BME280;10706;49.036;12.112;2022-12-20T07:36:07;98361.03;;;-1.81;93.14
21096;BME280;10706;49.036;12.112;2022-12-20T07:38:34;98378.41;;;-1.90;93.26
21096;BME280;10706;49.036;12.112;2022-12-20T07:41:06;98390.25;;;-1.96;93.15
21096;BME280;10706;49.036;12.112;2022-12-20T07:43:32;98379.63;;;-1.84;92.50
21096;BME280;10706;49.036;12.112;2022-12-20T07:45:58;98416.66;;;-1.69;92.81
21096;BME280;10706;49.036;12.112;2022-12-20T07:48:24;98418.03;;;-1.75;92.28
21096;BME280;10706;49.036;12.112;2022-12-20T07:50:56;98415.28;;;-1.64;92.62
21096;BME280;10706;49.036;12.112;2022-12-20T07:53:24;98422.03;;;-1.71;92.50
21096;BME280;10706;49.036;12.112;2022-12-20T07:55:51;98445.75;;;-1.63;92.12
21096;BME280;10706;49.036;12.112;2022-12-20T07:58:17;98437.03;;;-1.53;91.83
21096;BME280;10706;49.036;12.112;2022-12-20T08:00:44;98402.69;;;-1.50;90.54
21096;BME280;10706;49.036;12.112;2022-12-20T08:03:20;98429.16;;;-1.44;90.87
21096;BME280;10706;49.036;12.112;2022-12-20T08:05:53;98435.09;;;-1.42;91.14
21096;BME280;10706;49.036;12.112;2022-12-20T08:08:20;98417.56;;;-1.31;91.24
21096;BME280;10706;49.036;12.112;2022-12-20T08:10:47;98428.19;;;-1.33;90.34
21096;BME280;10706;49.036;12.112;2022-12-20T08:13:13;98431.53;;;-1.13;89.98
21096;BME280;10706;49.036;12.112;2022-12-20T08:15:39;98418.44;;;-1.13;89.55
21096;BME280;10706;49.036;12.112;2022-12-20T08:18:05;98406.03;;;-1.11;89.59
21096;BME280;10706;49.036;12.112;2022-12-20T08:20:32;98411.06;;;-1.00;88.84
21096;BME280;10706;49.036;12.112;2022-12-20T08:22:57;98399.38;;;-1.05;89.44
21096;BME280;10706;49.036;12.112;2022-12-20T08:25:24;98405.66;;;-1.16;89.79
21096;BME280;10706;49.036;12.112;2022-12-20T08:27:50;98420.09;;;-1.12;90.01
21096;BME280;10706;49.036;12.112;2022-12-20T08:30:16;98417.91;;;-1.17;89.27
21096;BME280;10706;49.036;12.112;2022-12-20T08:32:43;98411.06;;;-1.27;89.62
21096;BME280;10706;49.036;12.112;2022-12-20T08:35:08;98415.28;;;-1.17;90.00
21096;BME280;10706;49.036;12.112;2022-12-20T08:37:34;98392.25;;;-1.13;89.47
21096;BME280;10706;49.036;12.112;2022-12-20T08:40:00;98386.63;;;-1.28;90.14
21096;BME280;10706;49.036;12.112;2022-12-20T08:42:27;98398.38;;;-1.32;90.59
21096;BME280;10706;49.036;12.112;2022-12-20T08:44:52;98390.66;;;-1.33;90.92
21096;BME280;10706;49.036;12.112;2022-12-20T08:47:18;98391.69;;;-1.17;89.56
21096;BME280;10706;49.036;12.112;2022-12-20T08:49:44;98394.31;;;-1.17;90.32
21096;BME280;10706;49.036;12.112;2022-12-20T08:52:10;98392.16;;;-1.21;89.45
21096;BME280;10706;49.036;12.112;2022-12-20T08:54:35;98369.44;;;-1.03;88.49
21096;BME280;10706;49.036;12.112;2022-12-20T08:57:01;98357.94;;;-1.20;89.96
21096;BME280;10706;49.036;12.112;2022-12-20T08:59:27;98363.06;;;-1.28;90.49
21096;BME280;10706;49.036;12.112;2022-12-20T09:01:52;98369.38;;;-1.21;90.21
21096;BME280;10706;49.036;12.112;2022-12-20T09:04:20;98365.63;;;-1.08;89.20
21096;BME280;10706;49.036;12.112;2022-12-20T09:06:46;98362.47;;;-1.12;89.26
21096;BME280;10706;49.036;12.112;2022-12-20T09:09:12;98372.66;;;-1.09;89.50
21096;BME280;10706;49.036;12.112;2022-12-20T09:11:38;98369.59;;;-1.04;89.14
21096;BME280;10706;49.036;12.112;2022-12-20T09:14:04;98373.16;;;-0.95;89.06
21096;BME280;10706;49.036;12.112;2022-12-20T09:16:31;98370.13;;;-1.01;89.46
21096;BME280;10706;49.036;12.112;2022-12-20T09:19:00;98354.81;;;-1.05;88.81
21096;BME280;10706;49.036;12.112;2022-12-20T09:21:26;98359.59;;;-0.91;89.30
21096;BME280;10706;49.036;12.112;2022-12-20T09:23:54;98358.63;;;-0.90;89.39
21096;BME280;10706;49.036;12.112;2022-12-20T09:26:21;98365.91;;;-0.84;88.70
21096;BME280;10706;49.036;12.112;2022-12-20T09:28:48;98366.09;;;-0.95;88.46
21096;BME280;10706;49.036;12.112;2022-12-20T09:31:17;98367.44;;;-0.91;88.96
21096;BME280;10706;49.036;12.112;2022-12-20T09:33:44;98356.28;;;-0.93;88.61
21096;BME280;10706;49.036;12.112;2022-12-20T09:36:16;98355.69;;;-0.87;88.81
21096;BME280;10706;49.036;12.112;2022-12-20T09:38:42;98344.50;;;-0.61;88.22
21096;BME280;10706;49.036;12.112;2022-12-20T09:41:28;98339.13;;;-0.60;88.11
21096;BME280;10706;49.036;12.112;2022-12-20T09:43:58;98347.97;;;-0.43;87.47
21096;BME280;10706;49.036;12.112;2022-12-20T09:46:25;98336.34;;;-0.40;86.61
21096;BME280;10706;49.036;12.112;2022-12-20T09:48:52;98349.81;;;-0.53;86.68
21096;BME280;10706;49.036;12.112;2022-12-20T09:54:45;98370.06;;;-0.63;87.77
21096;BME280;10706;49.036;12.112;2022-12-20T10:00:46;98343.31;;;-0.49;88.13
21096;BME280;10706;49.036;12.112;2022-12-20T10:03:25;98341.41;;;-0.74;88.35
21096;BME280;10706;49.036;12.112;2022-12-20T10:05:54;98338.06;;;-0.67;88.93
21096;BME280;10706;49.036;12.112;2022-12-20T10:11:50;98334.75;;;-0.51;87.82
21096;BME280;10706;49.036;12.112;2022-12-20T10:17:32;98336.03;;;-0.55;87.70
21096;BME280;10706;49.036;12.112;2022-12-20T10:25:56;98330.84;;;-0.29;87.31
21096;BME280;10706;49.036;12.112;2022-12-20T10:28:29;98319.91;;;-0.42;87.52
21096;BME280;10706;49.036;12.112;2022-12-20T10:31:15;98308.00;;;-0.36;87.18
21096;BME280;10706;49.036;12.112;2022-12-20T10:33:42;98311.63;;;-0.37;87.21
21096;BME280;10706;49.036;12.112;2022-12-20T10:36:28;98301.38;;;-0.23;86.49
21096;BME280;10706;49.036;12.112;2022-12-20T10:38:57;98297.31;;;-0.17;86.32
21096;BME280;10706;49.036;12.112;2022-12-20T10:41:33;98306.59;;;-0.05;85.56
21096;BME280;10706;49.036;12.112;2022-12-20T10:44:42;98298.28;;;0.00;85.32
21096;BME280;10706;49.036;12.112;2022-12-20T10:47:33;98313.34;;;-0.02;85.79
21096;BME280;10706;49.036;12.112;2022-12-20T10:50:20;98299.38;;;0.15;84.92
21096;BME280;10706;49.036;12.112;2022-12-20T10:55:40;98281.41;;;0.37;83.25
21096;BME280;10706;49.036;12.112;2022-12-20T10:58:20;98274.28;;;0.21;84.87
21096;BME280;10706;49.036;12.112;2022-12-20T11:00:47;98266.34;;;0.13;84.31
21096;BME280;10706;49.036;12.112;2022-12-20T11:03:20;98258.22;;;-0.02;85.27
21096;BME280;10706;49.036;12.112;2022-12-20T11:06:00;98251.69;;;0.28;84.12
21096;BME280;10706;49.036;12.112;2022-12-20T11:08:30;98245.72;;;0.18;83.85
21096;BME280;10706;49.036;12.112;2022-12-20T11:11:19;98237.81;;;0.18;84.75
21096;BME280;10706;49.036;12.112;2022-12-20T11:13:47;98226.53;;;0.26;84.49
21096;BME280;10706;49.036;12.112;2022-12-20T11:16:33;98226.75;;;0.32;83.46
21096;BME280;10706;49.036;12.112;2022-12-20T11:22:26;98219.16;;;0.29;84.58
21096;BME280;10706;49.036;12.112;2022-12-20T11:25:35;98209.41;;;0.48;83.47
21096;BME280;10706;49.036;12.112;2022-12-20T11:28:41;98214.94;;;0.36;83.54
21096;BME280;10706;49.036;12.112;2022-12-20T11:37:20;98197.13;;;0.14;84.84
21096;BME280;10706;49.036;12.112;2022-12-20T11:40:22;98200.19;;;0.09;84.50
21096;BME280;10706;49.036;12.112;2022-12-20T11:46:33;98178.81;;;-0.04;85.65
21096;BME280;10706;49.036;12.112;2022-12-20T11:49:39;98167.78;;;-0.08;85.44
21096;BME280;10706;49.036;12.112;2022-12-20T11:57:44;98151.38;;;-0.10;86.30
21096;BME280;10706;49.036;12.112;2022-12-20T12:00:14;98156.47;;;-0.08;85.95
21096;BME280;10706;49.036;12.112;2022-12-20T12:03:07;98163.06;;;-0.04;85.22
21096;BME280;10706;49.036;12.112;2022-12-20T12:05:43;98144.53;;;-0.03;85.42
21096;BME280;10706;49.036;12.112;2022-12-20T12:08:21;98143.28;;;0.10;85.37
21096;BME280;10706;49.036;12.112;2022-12-20T12:11:20;98145.41;;;0.14;85.36
21096;BME280;10706;49.036;12.112;2022-12-20T12:13:47;98139.72;;;0.19;85.80
21096;BME280;10706;49.036;12.112;2022-12-20T12:16:27;98135.34;;;0.44;83.77
21096;BME280;10706;49.036;12.112;2022-12-20T12:18:58;98145.66;;;0.37;84.27
21096;BME280;10706;49.036;12.112;2022-12-20T12:21:30;98144.03;;;0.36;83.92
21096;BME280;10706;49.036;12.112;2022-12-20T12:24:33;98147.31;;;0.38;83.98
21096;BME280;10706;49.036;12.112;2022-12-20T12:26:59;98154.28;;;0.13;84.34
21096;BME280;10706;49.036;12.112;2022-12-20T12:29:28;98157.06;;;0.12;85.12
21096;BME280;10706;49.036;12.112;2022-12-20T12:32:18;98154.25;;;0.05;85.49
21096;BME280;10706;49.036;12.112;2022-12-20T12:35:36;98150.53;;;0.16;85.62
21096;BME280;10706;49.036;12.112;2022-12-20T12:38:59;98141.84;;;0.15;85.30
21096;BME280;10706;49.036;12.112;2022-12-20T12:42:08;98134.78;;;0.24;84.91
21096;BME280;10706;49.036;12.112;2022-12-20T12:47:54;98114.00;;;0.47;84.74
21096;BME280;10706;49.036;12.112;2022-12-20T12:50:26;98106.41;;;0.28;85.47
21096;BME280;10706;49.036;12.112;2022-12-20T12:53:03;98106.09;;;0.39;84.79
21096;BME280;10706;49.036;12.112;2022-12-20T12:55:44;98112.50;;;0.36;84.50
21096;BME280;10706;49.036;12.112;2022-12-20T13:00:53;98108.44;;;-0.09;86.12
21096;BME280;10706;49.036;12.112;2022-12-20T13:11:54;98115.34;;;0.01;86.85
21096;BME280;10706;49.036;12.112;2022-12-20T13:21:58;98117.53;;;0.13;86.22
21096;BME280;10706;49.036;12.112;2022-12-20T13:27:39;98125.06;;;0.16;85.47
21096;BME280;10706;49.036;12.112;2022-12-20T13:38:03;98131.66;;;0.21;86.53
21096;BME280;10706;49.036;12.112;2022-12-20T13:40:48;98134.97;;;0.31;85.28
21096;BME280;10706;49.036;12.112;2022-12-20T13:43:27;98126.25;;;0.22;85.97
21096;BME280;10706;49.036;12.112;2022-12-20T13:46:13;98118.34;;;0.14;86.75
21096;BME280;10706;49.036;12.112;2022-12-20T13:51:21;98112.59;;;0.10;86.83
21096;BME280;10706;49.036;12.112;2022-12-20T13:53:57;98103.84;;;0.02;87.83
21096;BME280;10706;49.036;12.112;2022-12-20T13:58:58;98099.28;;;0.04;87.46
21096;BME280;10706;49.036;12.112;2022-12-20T14:01:27;98087.66;;;0.14;86.46
21096;BME280;10706;49.036;12.112;2022-12-20T14:03:53;98081.38;;;-0.09;88.02
21096;BME280;10706;49.036;12.112;2022-12-20T14:06:21;98082.78;;;-0.23;89.35
21096;BME280;10706;49.036;12.112;2022-12-20T14:08:50;98076.75;;;-0.15;88.26
21096;BME280;10706;49.036;12.112;2022-12-20T14:11:23;98075.09;;;-0.16;88.32
21096;BME280;10706;49.036;12.112;2022-12-20T14:13:56;98069.22;;;-0.10;88.59
21096;BME280;10706;49.036;12.112;2022-12-20T14:16:25;98055.75;;;-0.15;88.72
21096;BME280;10706;49.036;12.112;2022-12-20T14:19:05;98054.25;;;-0.26;88.84
21096;BME280;10706;49.036;12.112;2022-12-20T14:21:38;98068.13;;;-0.34;89.25
21096;BME280;10706;49.036;12.112;2022-12-20T14:24:19;98067.44;;;-0.44;90.21
21096;BME280;10706;49.036;12.112;2022-12-20T14:26:47;98068.25;;;-0.44;90.64
21096;BME280;10706;49.036;12.112;2022-12-20T14:29:27;98056.47;;;-0.40;90.40
21096;BME280;10706;49.036;12.112;2022-12-20T14:31:54;98067.13;;;-0.41;90.39
21096;BME280;10706;49.036;12.112;2022-12-20T14:34:27;98066.97;;;-0.40;90.33
21096;BME280;10706;49.036;12.112;2022-12-20T14:37:30;98073.56;;;-0.35;90.48
21096;BME280;10706;49.036;12.112;2022-12-20T14:42:37;98082.16;;;-0.51;90.91
21096;BME280;10706;49.036;12.112;2022-12-20T14:47:34;98085.81;;;-0.44;90.30
21096;BME280;10706;49.036;12.112;2022-12-20T14:50:12;98085.16;;;-0.38;90.70
21096;BME280;10706;49.036;12.112;2022-12-20T14:52:42;98081.72;;;-0.38;90.19